createdAt,value
2023-05-05T00:01:38.153Z,13.71
2023-05-05T00:04:40.721Z,13.78
2023-05-05T00:07:43.276Z,13.81
2023-05-05T00:10:46.564Z,13.77
2023-05-05T00:13:49.102Z,13.75
2023-05-05T00:16:51.532Z,13.65
2023-05-05T00:19:54.584Z,13.61
2023-05-05T00:22:57.537Z,13.49
2023-05-05T00:26:00.060Z,13.52
2023-05-05T00:29:02.495Z,13.46
2023-05-05T00:32:05.151Z,13.38
2023-05-05T00:35:08.777Z,13.33
2023-05-05T00:38:11.344Z,13.28
2023-05-05T00:41:13.984Z,13.23
2023-05-05T00:44:16.819Z,13.18
2023-05-05T00:47:19.313Z,13.18
2023-05-05T00:50:24.303Z,13.10
2023-05-05T00:53:27.170Z,12.99
2023-05-05T00:56:29.694Z,12.93
2023-05-05T00:59:34.980Z,12.90
2023-05-05T01:02:39.272Z,12.80
2023-05-05T01:06:17.074Z,12.72
2023-05-05T01:09:44.801Z,12.70
2023-05-05T01:13:12.441Z,12.69
2023-05-05T01:16:18.914Z,12.77
2023-05-05T01:19:52.565Z,12.65
2023-05-05T01:23:00.593Z,12.47
2023-05-05T01:26:09.108Z,12.43
2023-05-05T01:29:46.705Z,12.42
2023-05-05T01:32:51.091Z,12.46
2023-05-05T01:35:58.378Z,12.36
2023-05-05T01:39:01.926Z,12.41
2023-05-05T01:42:09.385Z,12.35
2023-05-05T01:45:12.096Z,12.33
2023-05-05T01:48:16.546Z,12.32
2023-05-05T01:51:19.739Z,12.30
2023-05-05T01:54:24.830Z,12.27
2023-05-05T01:57:27.265Z,12.24
2023-05-05T02:00:30.002Z,12.14
2023-05-05T02:03:34.088Z,12.04
2023-05-05T02:06:36.831Z,12.00
2023-05-05T02:09:39.375Z,12.12
2023-05-05T02:12:44.599Z,12.08
2023-05-05T02:15:47.167Z,12.06
2023-05-05T02:18:49.613Z,11.93
2023-05-05T02:21:52.144Z,11.88
2023-05-05T02:24:54.778Z,11.89
2023-05-05T02:27:57.367Z,11.89
2023-05-05T02:31:00.249Z,11.83
2023-05-05T02:34:03.348Z,11.82
2023-05-05T02:37:11.468Z,11.80
2023-05-05T02:40:18.622Z,11.78
2023-05-05T02:43:22.527Z,11.79
2023-05-05T02:46:25.400Z,11.71
2023-05-05T02:49:27.957Z,11.64
2023-05-05T02:52:34.993Z,11.64
2023-05-05T02:55:43.112Z,11.60
2023-05-05T02:58:52.681Z,11.63
2023-05-05T03:02:10.920Z,11.69
2023-05-05T03:05:17.768Z,11.64
2023-05-05T03:08:28.584Z,11.51
2023-05-05T03:11:41.442Z,11.28
2023-05-05T03:14:45.119Z,11.31
2023-05-05T03:17:50.833Z,11.40
2023-05-05T03:20:53.468Z,11.46
2023-05-05T03:23:57.797Z,11.45
2023-05-05T03:27:00.631Z,11.41
2023-05-05T03:30:09.345Z,11.37
2023-05-05T03:33:17.212Z,11.44
2023-05-05T03:36:20.057Z,11.63
2023-05-05T03:39:22.895Z,11.66
2023-05-05T03:42:26.436Z,11.63
2023-05-05T03:45:29.381Z,11.62
2023-05-05T03:48:32.385Z,11.53
2023-05-05T03:51:36.727Z,11.51
2023-05-05T03:54:39.463Z,11.57
2023-05-05T03:57:42.453Z,11.68
2023-05-05T04:00:44.966Z,11.53
2023-05-05T04:03:48.130Z,11.67
2023-05-05T04:06:50.880Z,11.83
2023-05-05T04:09:56.160Z,11.88
2023-05-05T04:13:01.310Z,12.00
2023-05-05T04:16:06.312Z,11.95
2023-05-05T04:19:09.407Z,12.04
2023-05-05T04:22:12.114Z,12.16
2023-05-05T04:25:14.872Z,12.23
2023-05-05T04:28:19.060Z,12.28
2023-05-05T04:31:23.178Z,12.41
2023-05-05T04:34:26.942Z,12.51
2023-05-05T04:37:30.241Z,12.63
2023-05-05T04:40:33.937Z,12.71
2023-05-05T04:43:36.916Z,12.76
2023-05-05T04:46:48.748Z,12.73
2023-05-05T04:49:52.023Z,12.78
2023-05-05T04:52:54.785Z,12.89
2023-05-05T04:55:57.994Z,13.04
2023-05-05T04:59:00.648Z,13.07
2023-05-05T05:02:03.569Z,13.13
2023-05-05T05:05:06.784Z,13.18
2023-05-05T05:08:09.477Z,13.21
2023-05-05T05:11:12.230Z,13.27
2023-05-05T05:14:15.956Z,13.38
2023-05-05T05:17:22.667Z,13.42
2023-05-05T05:20:29.881Z,13.41
2023-05-05T05:23:32.582Z,13.44
2023-05-05T05:26:35.333Z,13.54
2023-05-05T05:29:38.446Z,13.66
2023-05-05T05:32:41.208Z,13.82
2023-05-05T05:35:44.886Z,13.86
2023-05-05T05:38:50.202Z,13.94
2023-05-05T05:41:52.916Z,14.10
2023-05-05T05:44:58.036Z,14.14
2023-05-05T05:48:04.143Z,14.15
2023-05-05T05:51:08.225Z,14.29
2023-05-05T05:54:14.377Z,14.45
2023-05-05T05:57:19.097Z,14.56
2023-05-05T06:00:22.114Z,14.59
2023-05-05T06:03:32.279Z,14.73
2023-05-05T06:06:34.960Z,14.89
2023-05-05T06:09:37.513Z,14.95
2023-05-05T06:12:40.334Z,15.11
2023-05-05T06:15:43.029Z,15.20
2023-05-05T06:18:50.905Z,15.20
2023-05-05T06:21:57.833Z,15.27
2023-05-05T06:25:00.940Z,15.26
2023-05-05T06:28:07.331Z,15.37
2023-05-05T06:31:10.408Z,15.47
2023-05-05T06:34:12.868Z,15.60
2023-05-05T06:37:15.484Z,15.65
2023-05-05T06:40:18.163Z,15.72
2023-05-05T06:43:21.039Z,15.87
2023-05-05T06:46:29.703Z,15.92
2023-05-05T06:49:32.780Z,15.95
2023-05-05T06:52:35.275Z,16.10
2023-05-05T06:55:38.177Z,16.13
2023-05-05T06:58:41.518Z,16.37
2023-05-05T07:01:44.022Z,16.47
2023-05-05T07:04:46.712Z,16.72
2023-05-05T07:07:56.264Z,16.91
2023-05-05T07:11:01.066Z,17.15
2023-05-05T07:14:03.715Z,17.30
2023-05-05T07:17:06.577Z,17.43
2023-05-05T07:20:10.223Z,17.67
2023-05-05T07:23:13.168Z,17.92
2023-05-05T07:26:16.259Z,17.97
2023-05-05T07:29:18.792Z,18.23
2023-05-05T07:32:21.393Z,18.44
2023-05-05T07:35:23.970Z,18.70
2023-05-05T07:38:26.699Z,18.83
2023-05-05T07:41:30.316Z,19.02
2023-05-05T07:44:33.814Z,19.08
2023-05-05T07:47:36.972Z,19.24
2023-05-05T07:50:39.770Z,19.32
2023-05-05T07:53:43.253Z,19.38
2023-05-05T07:56:46.069Z,19.45
2023-05-05T07:59:48.636Z,19.64
2023-05-05T08:02:51.339Z,19.52
2023-05-05T08:05:56.154Z,19.63
2023-05-05T08:09:00.265Z,19.51
2023-05-05T08:12:09.555Z,20.05
2023-05-05T08:15:12.820Z,20.60
2023-05-05T08:18:15.480Z,20.79
2023-05-05T08:21:18.782Z,21.03
2023-05-05T08:24:21.334Z,21.22
2023-05-05T08:27:26.626Z,21.14
2023-05-05T08:30:29.458Z,21.12
2023-05-05T08:33:32.700Z,20.98
2023-05-05T08:36:37.844Z,21.26
2023-05-05T08:39:40.367Z,21.68
2023-05-05T08:42:43.217Z,21.66
2023-05-05T08:45:46.310Z,22.09
2023-05-05T08:48:49.814Z,21.93
2023-05-05T08:51:56.555Z,22.25
2023-05-05T08:55:22.830Z,22.38
2023-05-05T08:58:28.273Z,22.48
2023-05-05T09:01:32.656Z,22.90
2023-05-05T09:04:35.366Z,22.98
2023-05-05T09:07:38.607Z,23.37
2023-05-05T09:10:41.879Z,23.66
2023-05-05T09:13:44.644Z,23.72
2023-05-05T09:16:47.141Z,23.60
2023-05-05T09:20:15.806Z,23.68
2023-05-05T09:23:19.866Z,23.75
2023-05-05T09:26:22.815Z,24.05
2023-05-05T09:29:25.492Z,23.60
2023-05-05T09:32:30.592Z,23.59
2023-05-05T09:35:55.278Z,23.24
2023-05-05T09:39:05.012Z,23.71
2023-05-05T09:42:18.122Z,23.98
2023-05-05T09:45:20.640Z,24.59
2023-05-05T09:48:28.647Z,25.38
2023-05-05T09:51:31.881Z,25.73
2023-05-05T09:54:34.833Z,24.66
2023-05-05T09:57:37.315Z,24.70
2023-05-05T10:00:40.082Z,24.85
2023-05-05T10:03:54.426Z,24.90
2023-05-05T10:06:57.665Z,24.84
2023-05-05T10:10:00.226Z,24.76
2023-05-05T10:13:02.865Z,24.77
2023-05-05T10:16:06.019Z,25.49
2023-05-05T10:19:08.483Z,25.51
2023-05-05T10:22:11.038Z,25.58
2023-05-05T10:25:14.014Z,26.12
2023-05-05T10:28:19.392Z,26.63
2023-05-05T10:31:29.758Z,26.66
2023-05-05T10:34:39.623Z,26.80
2023-05-05T10:37:42.117Z,27.22
2023-05-05T10:40:46.193Z,27.72
2023-05-05T10:43:49.240Z,28.27
2023-05-05T10:46:54.310Z,28.59
2023-05-05T10:50:15.398Z,28.64
2023-05-05T10:53:32.180Z,29.12
2023-05-05T10:56:34.785Z,29.45
2023-05-05T10:59:37.808Z,29.44
2023-05-05T11:02:41.476Z,28.69
2023-05-05T11:06:08.079Z,29.83
2023-05-05T11:09:29.370Z,28.99
2023-05-05T11:12:32.644Z,29.03
2023-05-05T11:15:38.437Z,29.74
2023-05-05T11:18:44.468Z,29.86
2023-05-05T11:22:13.688Z,29.84
2023-05-05T11:25:38.276Z,30.83
2023-05-05T11:29:00.991Z,31.55
2023-05-05T11:32:13.959Z,32.28
2023-05-05T11:35:16.531Z,32.44
2023-05-05T11:38:19.279Z,32.84
2023-05-05T11:41:33.903Z,32.50
2023-05-05T11:44:39.161Z,33.26
2023-05-05T11:47:43.888Z,33.66
2023-05-05T11:50:46.964Z,33.79
2023-05-05T11:53:49.962Z,33.40
2023-05-05T11:56:53.895Z,34.35
2023-05-05T12:00:04.443Z,33.56
2023-05-05T12:03:08.839Z,32.84
2023-05-05T12:06:11.422Z,32.35
2023-05-05T12:09:32.710Z,32.45
2023-05-05T12:12:40.991Z,31.98
2023-05-05T12:15:43.392Z,32.04
2023-05-05T12:18:47.506Z,33.29
2023-05-05T12:21:50.783Z,33.02
2023-05-05T12:25:02.280Z,33.57
2023-05-05T12:28:06.808Z,34.08
2023-05-05T12:31:09.641Z,34.01
2023-05-05T12:34:12.164Z,34.06
2023-05-05T12:37:16.502Z,33.90
2023-05-05T12:40:47.753Z,34.09
2023-05-05T12:44:00.002Z,34.89
2023-05-05T12:47:02.747Z,33.96
2023-05-05T12:50:05.959Z,33.16
2023-05-05T12:53:09.124Z,32.84
2023-05-05T12:56:31.164Z,31.63
2023-05-05T12:59:33.870Z,32.13
2023-05-05T13:02:36.680Z,32.61
2023-05-05T13:05:41.189Z,32.83
2023-05-05T13:08:44.673Z,32.58
2023-05-05T13:11:47.257Z,32.76
2023-05-05T13:14:49.985Z,32.66
2023-05-05T13:18:01.112Z,32.74
2023-05-05T13:21:03.687Z,32.51
2023-05-05T13:24:21.320Z,32.38
2023-05-05T13:27:28.692Z,30.79
2023-05-05T13:30:32.056Z,30.73
2023-05-05T13:33:34.918Z,30.51
2023-05-05T13:36:37.877Z,30.39
2023-05-05T13:39:40.564Z,29.89
2023-05-05T13:42:43.107Z,29.28
2023-05-05T13:45:45.815Z,30.08
2023-05-05T13:48:48.747Z,29.70
2023-05-05T13:51:53.328Z,31.20
2023-05-05T13:54:58.907Z,31.18
2023-05-05T13:58:01.570Z,31.08
2023-05-05T14:01:04.495Z,30.55
2023-05-05T14:04:07.333Z,29.92
2023-05-05T14:07:10.167Z,30.03
2023-05-05T14:10:13.941Z,30.37
2023-05-05T14:13:16.388Z,29.98
2023-05-05T14:16:18.936Z,29.07
2023-05-05T14:34:41.653Z,30.66
2023-05-05T14:37:44.339Z,30.56
2023-05-05T14:40:46.929Z,30.48
2023-05-05T14:43:49.681Z,31.30
2023-05-05T14:46:52.577Z,30.96
2023-05-05T14:53:36.391Z,30.51
2023-05-05T15:00:54.656Z,29.73
2023-05-05T15:03:57.687Z,30.23
2023-05-05T15:07:00.871Z,30.05
2023-05-05T15:10:05.011Z,30.18
2023-05-05T15:13:07.740Z,30.40
2023-05-05T15:16:10.599Z,30.71
2023-05-05T15:19:25.881Z,30.72
2023-05-05T15:22:32.109Z,30.22
2023-05-05T15:25:37.601Z,30.28
2023-05-05T15:28:40.656Z,29.26
2023-05-05T15:31:43.521Z,29.29
2023-05-05T15:34:50.227Z,28.58
2023-05-05T15:37:56.057Z,28.71
2023-05-05T15:41:00.297Z,28.37
2023-05-05T15:44:04.626Z,28.47
2023-05-05T15:47:10.999Z,27.54
2023-05-05T15:50:14.196Z,27.63
2023-05-05T15:53:17.750Z,27.26
2023-05-05T15:56:21.111Z,27.34
2023-05-05T15:59:24.376Z,27.06
2023-05-05T16:02:27.091Z,26.99
2023-05-05T16:05:30.364Z,26.57
2023-05-05T16:08:33.025Z,25.71
2023-05-05T16:11:37.256Z,25.51
2023-05-05T16:14:40.099Z,25.46
2023-05-05T16:17:43.164Z,25.25
2023-05-05T16:20:46.013Z,24.92
2023-05-05T16:23:50.339Z,24.88
2023-05-05T16:26:53.187Z,24.78
2023-05-05T16:29:57.688Z,24.55
2023-05-05T16:33:02.042Z,24.51
2023-05-05T16:36:05.067Z,24.36
2023-05-05T16:39:07.735Z,24.12
2023-05-05T16:42:10.222Z,23.87
2023-05-05T16:45:13.796Z,23.74
2023-05-05T16:48:17.698Z,23.62
2023-05-05T16:51:20.571Z,23.42
2023-05-05T16:54:23.349Z,23.33
2023-05-05T16:57:26.236Z,23.27
2023-05-05T17:00:28.710Z,23.12
2023-05-05T17:03:31.340Z,23.04
2023-05-05T17:06:33.931Z,22.90
2023-05-05T17:09:36.768Z,22.74
2023-05-05T17:12:40.223Z,22.54
2023-05-05T17:15:44.574Z,22.45
2023-05-05T17:18:47.583Z,22.39
2023-05-05T17:21:50.234Z,22.39
2023-05-05T17:24:52.804Z,22.26
2023-05-05T17:27:56.381Z,22.18
2023-05-05T17:31:01.653Z,22.07
2023-05-05T17:34:04.303Z,21.88
2023-05-05T17:37:07.525Z,21.78
2023-05-05T17:40:10.564Z,21.68
2023-05-05T17:43:13.346Z,21.47
2023-05-05T17:46:15.896Z,21.38
2023-05-05T17:49:18.576Z,21.24
2023-05-05T17:52:21.179Z,21.03
2023-05-05T17:55:26.616Z,20.76
2023-05-05T17:58:29.193Z,20.57
2023-05-05T18:01:31.765Z,20.41
2023-05-05T18:04:36.571Z,20.21
2023-05-05T18:07:39.146Z,20.15
2023-05-05T18:10:42.081Z,20.14
2023-05-05T18:13:44.601Z,20.04
2023-05-05T18:16:52.219Z,19.92
2023-05-05T18:19:54.833Z,19.73
2023-05-05T18:22:57.172Z,19.69
2023-05-05T18:25:59.924Z,19.53
2023-05-05T18:29:02.633Z,19.39
2023-05-05T18:32:10.893Z,19.23
2023-05-05T18:35:14.080Z,19.07
2023-05-05T18:38:16.848Z,18.98
2023-05-05T18:41:19.631Z,18.82
2023-05-05T18:44:22.538Z,18.60
2023-05-05T18:47:26.334Z,18.50
2023-05-05T18:50:29.035Z,18.36
2023-05-05T18:53:31.857Z,18.21
2023-05-05T18:56:34.337Z,18.17
2023-05-05T18:59:36.789Z,18.08
2023-05-05T19:02:39.286Z,17.93
2023-05-05T19:05:42.197Z,17.78
2023-05-05T19:08:45.600Z,17.82
2023-05-05T19:11:48.022Z,17.65
2023-05-05T19:14:50.705Z,17.51
2023-05-05T19:17:53.881Z,17.47
2023-05-05T19:20:56.647Z,17.52
2023-05-05T19:23:59.006Z,17.37
2023-05-05T19:27:03.030Z,17.36
2023-05-05T19:30:06.487Z,17.34
2023-05-05T19:33:09.228Z,17.20
2023-05-05T19:36:12.753Z,17.04
2023-05-05T19:39:15.957Z,16.95
2023-05-05T19:42:18.698Z,16.86
2023-05-05T19:45:21.576Z,16.74
2023-05-05T19:48:24.710Z,16.64
2023-05-05T19:51:27.399Z,16.47
2023-05-05T19:54:30.017Z,16.44
2023-05-05T19:57:32.620Z,16.61
2023-05-05T20:00:35.124Z,16.58
2023-05-05T20:03:37.714Z,16.48
2023-05-05T20:06:40.812Z,16.35
2023-05-05T20:09:43.284Z,16.26
2023-05-05T20:12:49.203Z,16.23
2023-05-05T20:15:52.103Z,16.19
2023-05-05T20:18:55.173Z,16.10
2023-05-05T20:22:00.485Z,16.01
2023-05-05T20:25:02.949Z,15.89
2023-05-05T20:28:05.566Z,15.78
2023-05-05T20:31:09.398Z,15.86
2023-05-05T20:34:12.212Z,15.89
2023-05-05T20:37:14.683Z,15.97
2023-05-05T20:40:17.434Z,15.92
2023-05-05T20:43:20.106Z,15.81
2023-05-05T20:46:22.959Z,15.89
2023-05-05T20:49:29.205Z,15.69
2023-05-05T20:52:32.264Z,15.66
2023-05-05T20:55:34.998Z,15.54
2023-05-05T20:58:37.736Z,15.58
2023-05-05T21:01:40.174Z,15.55
2023-05-05T21:04:42.673Z,15.48
2023-05-05T21:07:45.395Z,15.45
2023-05-05T21:10:47.810Z,15.34
2023-05-05T21:13:50.407Z,15.26
2023-05-05T21:16:53.208Z,15.18
2023-05-05T21:20:08.972Z,15.16
2023-05-05T21:23:14.311Z,15.21
2023-05-05T21:26:16.881Z,15.34
2023-05-05T21:29:19.815Z,15.34
2023-05-05T21:32:22.291Z,15.23
2023-05-05T21:35:24.918Z,15.13
2023-05-05T21:38:27.749Z,15.06
2023-05-05T21:41:30.123Z,15.18
2023-05-05T21:44:32.825Z,15.03
2023-05-05T21:47:35.602Z,15.02
2023-05-05T21:50:38.091Z,14.87
2023-05-05T21:53:40.855Z,14.81
2023-05-05T21:56:43.282Z,15.01
2023-05-05T21:59:45.899Z,15.07
2023-05-05T22:02:48.671Z,15.07
2023-05-05T22:05:51.175Z,14.97
2023-05-05T22:08:53.771Z,14.98
2023-05-05T22:11:57.784Z,14.89
2023-05-05T22:15:00.282Z,14.81
2023-05-05T22:18:03.309Z,14.90
2023-05-05T22:21:05.806Z,14.99
2023-05-05T22:24:08.256Z,14.98
2023-05-05T22:27:10.838Z,14.94
2023-05-05T22:30:13.925Z,14.93
2023-05-05T22:33:16.823Z,14.74
2023-05-05T22:36:19.225Z,14.85
2023-05-05T22:39:21.761Z,14.88
2023-05-05T22:42:24.183Z,14.69
2023-05-05T22:45:26.763Z,14.71
2023-05-05T22:48:29.238Z,14.65
2023-05-05T22:51:31.911Z,14.51
2023-05-05T22:54:34.450Z,14.55
2023-05-05T22:57:37.014Z,14.49
2023-05-05T23:00:39.968Z,14.48
2023-05-05T23:03:42.516Z,14.47
2023-05-05T23:06:45.119Z,14.27
2023-05-05T23:09:47.617Z,14.07
2023-05-05T23:12:50.104Z,14.14
2023-05-05T23:15:52.804Z,14.20
2023-05-05T23:18:55.281Z,14.25
2023-05-05T23:21:59.370Z,14.08
2023-05-05T23:25:02.411Z,14.08
2023-05-05T23:28:06.039Z,13.98
2023-05-05T23:31:09.038Z,13.84
2023-05-05T23:34:11.421Z,13.82
2023-05-05T23:37:14.614Z,13.77
2023-05-05T23:40:17.087Z,13.89
2023-05-05T23:43:19.692Z,13.99
2023-05-05T23:46:22.094Z,13.94
2023-05-05T23:49:26.440Z,13.94
2023-05-05T23:52:29.053Z,13.84
2023-05-05T23:55:31.527Z,13.92
2023-05-05T23:58:34.129Z,13.86
